Time;durP1;ratioP1;P1;durP2;ratioP2;P2;SDS_P1;SDS_P2;PMS_P1;PMS_P2;Temp;Humidity;BMP_temperature;BMP_pressure;BME280_temperature;BME280_humidity;BME280_pressure;Samples;Min_cycle;Max_cycle;Signal;HPM_P1;HPM_P2
2022/10/09 00:05:43;;;;;;;6.00;4.20;;;;;;;8.58;83.04;99967.39;430713;1282;143886;-61
2022/10/09 00:15:49;;;;;;;6.10;3.80;;;;;;;8.49;83.80;99979.30;436841;1281;141639;-62
2022/10/09 00:25:56;;;;;;;6.70;4.80;;;;;;;8.39;84.25;99991.45;436877;1288;143267;-62
2022/10/09 00:36:06;;;;;;;5.60;4.50;;;;;;;8.30;84.79;100002.02;436141;1285;143296;-62
2022/10/09 00:46:33;;;;;;;7.80;5.50;;;;;;;8.19;85.13;100005.70;436834;1284;152510;-62
2022/10/09 00:56:38;;;;;;;8.40;5.30;;;;;;;8.06;85.69;100011.52;436082;1286;142710;-62
2022/10/09 01:07:02;;;;;;;8.20;6.10;;;;;;;7.94;86.20;100012.73;429618;1287;142052;-61
2022/10/09 01:17:15;;;;;;;12.10;7.20;;;;;;;8.06;86.98;100023.89;436830;1281;142359;-62
2022/10/09 01:27:23;;;;;;;9.20;6.90;;;;;;;8.08;86.68;100031.27;436476;1282;196603;-62
2022/10/09 01:37:29;;;;;;;;;;;;;;;8.19;87.08;100041.06;429309;1282;142560;-61
2022/10/09 01:47:34;;;;;;;11.10;7.30;;;;;;;8.38;87.14;100055.88;420682;1281;147419;-61
2022/10/09 01:57:48;;;;;;;12.60;7.30;;;;;;;8.50;86.84;100062.82;436842;1287;143038;-62
2022/10/09 02:07:55;;;;;;;10.10;5.80;;;;;;;8.46;86.41;100077.16;432465;1282;141597;-62
2022/10/09 02:18:07;;;;;;;9.10;6.10;;;;;;;8.37;86.41;100088.73;436042;1281;144037;-61
2022/10/09 02:28:13;;;;;;;9.30;6.40;;;;;;;8.10;85.95;100096.41;436838;1280;144643;-62
2022/10/09 02:38:19;;;;;;;8.00;5.50;;;;;;;7.70;86.22;100108.13;436096;1285;143525;-62
2022/10/09 02:48:24;;;;;;;7.20;5.40;;;;;;;7.43;86.60;100111.52;436810;1287;143103;-63
2022/10/09 02:58:33;;;;;;;7.20;4.80;;;;;;;7.30;86.66;100122.70;436812;1280;142289;-62
2022/10/09 03:08:40;;;;;;;8.50;5.10;;;;;;;7.05;86.74;100132.96;434003;1282;197484;-62
2022/10/09 03:18:46;;;;;;;9.20;5.70;;;;;;;6.83;86.92;100142.02;436874;1284;142297;-63
2022/10/09 03:28:53;;;;;;;9.30;6.20;;;;;;;6.67;87.31;100159.15;436850;1282;142284;-62
2022/10/09 03:38:59;;;;;;;6.20;5.20;;;;;;;6.62;87.58;100161.62;436101;1281;142892;-62
2022/10/09 03:49:04;;;;;;;9.30;5.10;;;;;;;6.67;88.16;100172.36;431858;1279;143287;-62
2022/10/09 03:59:11;;;;;;;6.30;5.10;;;;;;;6.88;88.34;100179.05;429487;1283;143452;-63
2022/10/09 04:09:17;;;;;;;10.80;5.60;;;;;;;6.94;88.16;100186.66;435123;1282;142729;-62
2022/10/09 04:19:22;;;;;;;6.60;5.30;;;;;;;6.94;88.06;100194.14;436830;1287;142241;-62
2022/10/09 04:29:28;;;;;;;11.80;6.30;;;;;;;6.94;88.05;100201.13;436099;1284;143141;-62
2022/10/09 04:39:34;;;;;;;11.10;7.50;;;;;;;7.05;88.18;100214.25;436824;1288;143004;-62
2022/10/09 04:49:39;;;;;;;7.30;5.80;;;;;;;7.20;87.96;100221.68;436817;1272;145064;-62
2022/10/09 04:59:45;;;;;;;7.40;6.40;;;;;;;7.30;87.81;100235.23;436130;1287;141853;-62
2022/10/09 05:09:51;;;;;;;9.60;6.70;;;;;;;7.39;87.63;100248.09;435308;1281;141924;-62
2022/10/09 05:19:56;;;;;;;7.80;6.50;;;;;;;7.43;87.37;100256.79;436917;1287;142847;-62
2022/10/09 05:30:02;;;;;;;10.00;6.00;;;;;;;7.50;87.35;100268.02;436074;1281;142297;-62
2022/10/09 05:40:10;;;;;;;7.40;6.80;;;;;;;7.53;87.06;100276.07;436864;1281;142158;-62
2022/10/09 05:50:16;;;;;;;8.40;6.90;;;;;;;7.58;86.84;100290.72;436082;1281;142312;-62
2022/10/09 06:00:22;;;;;;;11.60;7.40;;;;;;;7.61;86.66;100305.92;436856;1287;143590;-63
2022/10/09 06:10:28;;;;;;;12.50;8.10;;;;;;;7.71;86.47;100314.08;426470;1281;142451;-62
2022/10/09 06:20:37;;;;;;;8.60;7.80;;;;;;;7.69;86.56;100335.21;420770;1275;142101;-62
2022/10/09 06:30:42;;;;;;;11.20;8.00;;;;;;;7.76;86.32;100351.68;436773;1285;142471;-62
2022/10/09 06:40:48;;;;;;;9.30;7.50;;;;;;;7.83;86.08;100364.15;436862;1281;143463;-66
2022/10/09 06:50:54;;;;;;;9.60;7.80;;;;;;;7.89;86.06;100379.05;436100;1284;143625;-63
2022/10/09 07:01:07;;;;;;;8.10;7.30;;;;;;;8.06;85.69;100390.77;436858;1280;143027;-62
2022/10/09 07:11:16;;;;;;;7.40;6.10;;;;;;;8.16;85.53;100407.11;427278;1275;152175;-62
2022/10/09 07:21:22;;;;;;;6.60;5.90;;;;;;;8.20;85.31;100416.69;436844;1274;142796;-61
2022/10/09 07:31:28;;;;;;;8.20;5.60;;;;;;;8.23;85.13;100423.58;436878;1287;141709;-61
2022/10/09 07:41:34;;;;;;;8.40;6.40;;;;;;;8.49;84.89;100433.31;436125;1281;142468;-63
2022/10/09 07:51:40;;;;;;;7.00;5.20;;;;;;;8.66;84.62;100445.02;436878;1281;141492;-61
2022/10/09 08:01:45;;;;;;;6.60;5.30;;;;;;;8.73;84.20;100452.06;436844;1281;143816;-62
2022/10/09 08:11:51;;;;;;;8.80;6.50;;;;;;;8.91;83.79;100455.50;432435;1281;142592;-63
2022/10/09 08:21:57;;;;;;;6.10;5.10;;;;;;;9.07;83.68;100461.43;436856;1281;142529;-62
2022/10/09 08:32:08;;;;;;;9.40;4.90;;;;;;;9.44;82.99;100476.25;436750;1274;142928;-62
2022/10/09 08:42:27;;;;;;;6.10;4.60;;;;;;;9.82;82.09;100479.61;436366;1274;145936;-62
2022/10/09 08:52:42;;;;;;;5.40;4.40;;;;;;;10.22;81.02;100489.25;436802;1281;141690;-62
2022/10/09 09:03:14;;;;;;;7.70;3.30;;;;;;;11.11;79.87;100495.23;436066;1281;143116;-62
2022/10/09 09:13:37;;;;;;;7.30;4.80;;;;;;;11.71;77.79;100505.08;432181;1281;142513;-61
2022/10/09 09:23:47;;;;;;;4.40;3.30;;;;;;;11.57;76.93;100510.89;436060;1281;142591;-61
2022/10/09 09:33:59;;;;;;;10.00;5.60;;;;;;;11.51;76.14;100512.98;436833;1272;142295;-62
2022/10/09 09:44:07;;;;;;;5.80;3.60;;;;;;;11.23;76.36;100521.97;436796;1281;144710;-62
2022/10/09 09:54:16;;;;;;;;;;;;;;;11.70;75.96;100520.92;436429;1287;198107;-62
2022/10/09 10:04:26;;;;;;;3.10;2.30;;;;;;;12.17;74.60;100527.99;436987;1281;131926;-62
2022/10/09 10:14:34;;;;;;;5.80;3.30;;;;;;;12.76;72.88;100528.76;426902;1275;144197;-62
2022/10/09 10:24:44;;;;;;;3.50;2.70;;;;;;;13.40;71.45;100531.30;436657;1272;142632;-62
2022/10/09 10:34:56;;;;;;;4.90;2.50;;;;;;;13.52;69.85;100532.56;436649;1281;218435;-62
2022/10/09 10:45:13;;;;;;;5.60;2.50;;;;;;;13.29;69.16;100529.90;436037;1278;143046;-61
2022/10/09 10:55:30;;;;;;;5.60;1.90;;;;;;;13.22;68.16;100533.14;436837;1281;153001;-63
2022/10/09 11:05:45;;;;;;;4.80;2.20;;;;;;;13.32;67.90;100542.70;436068;1278;142580;-63
2022/10/09 11:16:01;;;;;;;3.50;2.40;;;;;;;13.59;66.99;100535.33;422298;1275;142959;-63
2022/10/09 11:26:15;;;;;;;5.50;2.10;;;;;;;13.72;66.48;100533.63;435043;1281;142349;-62
2022/10/09 11:36:26;;;;;;;3.50;1.60;;;;;;;14.03;65.36;100526.10;436413;1278;197981;-63
2022/10/09 11:46:44;;;;;;;7.10;1.60;;;;;;;13.56;64.84;100524.90;436863;1282;142921;-63
2022/10/09 11:56:59;;;;;;;2.20;1.50;;;;;;;13.86;64.98;100516.91;436138;1288;143434;-63
2022/10/09 12:07:08;;;;;;;4.00;1.30;;;;;;;13.76;64.55;100514.90;436828;1288;143222;-63
2022/10/09 12:17:33;;;;;;;2.90;1.40;;;;;;;13.49;63.91;100510.38;435077;1280;151295;-63
2022/10/09 12:27:41;;;;;;;2.20;1.30;;;;;;;13.53;64.11;100508.25;436733;1281;143120;-63
2022/10/09 12:37:46;;;;;;;3.90;1.60;;;;;;;13.64;63.28;100509.54;436781;1280;141180;-62
2022/10/09 12:47:54;;;;;;;3.60;2.10;;;;;;;13.73;62.42;100510.38;436048;1278;141649;-63
2022/10/09 12:58:06;;;;;;;5.60;2.30;;;;;;;13.82;62.09;100506.98;436762;1274;142746;-62
2022/10/09 13:08:24;;;;;;;4.00;1.50;;;;;;;13.75;61.97;100510.41;434338;1280;203279;-64
2022/10/09 13:18:30;;;;;;;5.10;1.80;;;;;;;13.14;62.17;100514.26;436785;1280;142283;-63
2022/10/09 13:28:36;;;;;;;4.20;1.70;;;;;;;12.75;63.08;100509.84;436804;1280;142808;-62
2022/10/09 13:38:43;;;;;;;2.80;1.40;;;;;;;12.51;63.25;100501.90;436016;1281;142991;-63
2022/10/09 13:48:48;;;;;;;3.10;1.00;;;;;;;12.33;63.09;100495.57;436611;1284;143485;-63
2022/10/09 13:58:54;;;;;;;4.50;1.90;;;;;;;12.26;63.17;100489.66;436752;1278;142860;-62
2022/10/09 14:09:00;;;;;;;4.90;2.80;;;;;;;12.01;64.04;100486.62;433165;1288;142920;-61
2022/10/09 14:19:07;;;;;;;4.90;2.20;;;;;;;11.69;64.63;100494.47;421109;1285;142253;-62
2022/10/09 14:29:12;;;;;;;7.20;2.30;;;;;;;11.56;64.88;100488.16;434476;1287;143060;-63
2022/10/09 14:39:18;;;;;;;7.00;2.60;;;;;;;11.38;65.17;100490.52;436827;1286;144077;-63
2022/10/09 14:49:24;;;;;;;3.40;2.40;;;;;;;11.25;65.71;100488.89;436765;1289;143851;-62
2022/10/09 14:59:30;;;;;;;3.90;2.10;;;;;;;11.09;66.12;100489.56;435856;1280;143230;-63
2022/10/09 15:09:36;;;;;;;10.70;3.50;;;;;;;10.92;66.25;100490.24;435099;1282;142661;-62
2022/10/09 15:19:42;;;;;;;4.50;2.70;;;;;;;10.72;67.04;100481.41;420786;1282;143097;-62
2022/10/09 15:29:47;;;;;;;8.50;3.50;;;;;;;10.45;67.79;100476.78;435490;1288;143473;-63
2022/10/09 15:39:53;;;;;;;9.70;7.10;;;;;;;10.17;68.51;100490.56;436752;1281;143350;-62
2022/10/09 15:49:59;;;;;;;12.00;4.90;;;;;;;9.87;69.28;100500.52;436756;1282;141726;-62
2022/10/09 16:00:06;;;;;;;6.40;4.10;;;;;;;9.52;70.36;100505.76;436038;1278;142612;-63
2022/10/09 16:10:13;;;;;;;5.40;4.70;;;;;;;9.12;71.25;100508.73;436787;1281;141851;-62
2022/10/09 16:20:18;;;;;;;8.30;5.00;;;;;;;8.73;72.09;100514.38;434338;1287;142437;-62
2022/10/09 16:30:24;;;;;;;10.10;5.50;;;;;;;8.38;72.86;100526.08;436835;1282;141871;-63
2022/10/09 16:40:31;;;;;;;10.50;8.10;;;;;;;8.02;73.66;100532.16;436801;1280;142427;-63
2022/10/09 16:50:56;;;;;;;15.40;9.50;;;;;;;7.73;74.54;100540.92;436017;1285;144665;-67
2022/10/09 17:01:04;;;;;;;16.40;9.20;;;;;;;7.42;74.95;100536.61;436780;1288;141898;-61
2022/10/09 17:11:16;;;;;;;10.10;7.10;;;;;;;7.06;75.40;100547.60;431675;1281;143842;-62
2022/10/09 17:21:21;;;;;;;13.60;8.20;;;;;;;6.73;76.08;100548.35;436820;1279;143702;-63
2022/10/09 17:31:28;;;;;;;13.00;8.50;;;;;;;6.42;76.64;100550.70;436846;1287;143813;-63
2022/10/09 17:41:35;;;;;;;13.00;8.80;;;;;;;6.20;77.55;100552.09;436124;1287;142053;-62
2022/10/09 17:51:41;;;;;;;21.50;12.80;;;;;;;5.95;77.74;100555.57;436817;1288;142727;-63
2022/10/09 18:01:47;;;;;;;21.70;12.50;;;;;;;5.68;77.73;100559.81;436848;1287;142461;-63
2022/10/09 18:11:53;;;;;;;57.50;42.70;;;;;;;5.42;78.40;100560.67;430707;1287;142245;-63
2022/10/09 18:21:59;;;;;;;33.20;24.90;;;;;;;5.34;79.81;100557.61;436802;1280;143197;-62
2022/10/09 18:32:05;;;;;;;35.90;21.20;;;;;;;5.09;79.88;100558.25;436892;1281;141731;-62
2022/10/09 18:42:11;;;;;;;35.70;26.60;;;;;;;4.83;79.75;100560.99;436268;1281;141768;-62
2022/10/09 18:52:18;;;;;;;38.80;26.80;;;;;;;4.58;79.90;100566.94;436892;1287;143379;-62
2022/10/09 19:02:25;;;;;;;32.80;25.20;;;;;;;4.37;80.06;100570.89;436113;1284;143961;-62
2022/10/09 19:12:31;;;;;;;43.40;30.00;;;;;;;4.27;80.79;100573.36;435233;1286;141692;-62
2022/10/09 19:22:38;;;;;;;32.40;27.00;;;;;;;4.18;81.41;100578.77;436840;1281;142883;-63
2022/10/09 19:32:45;;;;;;;38.30;26.00;;;;;;;3.97;80.95;100586.65;436118;1282;142719;-61
2022/10/09 19:42:51;;;;;;;42.90;28.70;;;;;;;3.77;81.12;100581.67;436899;1282;142029;-63
2022/10/09 19:52:57;;;;;;;28.30;22.10;;;;;;;3.79;82.31;100587.70;436830;1286;141139;-61
2022/10/09 20:03:03;;;;;;;33.00;24.90;;;;;;;3.60;82.03;100598.98;436093;1282;147643;-62
2022/10/09 20:13:09;;;;;;;84.00;63.00;;;;;;;3.62;83.17;100603.79;432077;1281;142944;-61
2022/10/09 20:23:14;;;;;;;38.00;31.70;;;;;;;3.57;83.52;100591.59;419748;1282;143858;-62
2022/10/09 20:33:20;;;;;;;46.60;37.40;;;;;;;3.42;83.66;100596.35;419971;1281;145172;-62
2022/10/09 20:43:26;;;;;;;48.60;31.50;;;;;;;3.21;83.67;100594.13;428755;1281;147503;-62
2022/10/09 20:53:32;;;;;;;45.00;31.60;;;;;;;3.07;83.64;100597.83;436156;1281;143357;-63
2022/10/09 21:03:38;;;;;;;39.50;28.30;;;;;;;2.98;83.51;100598.34;436863;1277;145407;-62
2022/10/09 21:13:46;;;;;;;47.30;33.90;;;;;;;2.94;84.05;100595.63;430915;1282;183341;-62
2022/10/09 21:23:54;;;;;;;46.20;36.00;;;;;;;2.79;84.00;100599.66;436096;1282;143084;-62
2022/10/09 21:34:00;;;;;;;39.90;30.00;;;;;;;2.77;84.50;100599.52;436823;1282;143787;-62
2022/10/09 21:44:07;;;;;;;42.50;32.30;;;;;;;2.79;84.80;100602.95;436786;1280;143295;-62
2022/10/09 21:54:13;;;;;;;39.70;30.30;;;;;;;2.61;84.49;100592.52;436395;1274;142633;-63
2022/10/09 22:04:19;;;;;;;28.00;21.50;;;;;;;2.53;84.83;100581.21;436867;1275;142133;-62
2022/10/09 22:14:24;;;;;;;29.20;23.70;;;;;;;2.67;85.95;100578.40;430672;1281;199220;-62
2022/10/09 22:24:31;;;;;;;34.60;26.60;;;;;;;2.68;85.93;100582.04;432342;1281;142671;-63
2022/10/09 22:34:37;;;;;;;35.50;26.30;;;;;;;2.51;85.81;100577.09;436694;1281;143807;-62
2022/10/09 22:44:43;;;;;;;35.30;26.20;;;;;;;2.45;85.96;100570.43;436121;1280;144617;-62
2022/10/09 22:54:48;;;;;;;28.50;23.20;;;;;;;2.28;85.63;100574.81;436811;1280;142633;-63
2022/10/09 23:04:54;;;;;;;31.20;20.80;;;;;;;2.23;85.82;100568.33;436863;1275;142063;-63
2022/10/09 23:15:00;;;;;;;26.30;20.30;;;;;;;2.28;86.63;100568.27;431240;1281;141972;-62
2022/10/09 23:25:07;;;;;;;21.70;17.60;;;;;;;2.49;87.42;100565.71;433477;1281;143153;-63
2022/10/09 23:35:12;;;;;;;22.00;16.80;;;;;;;2.65;88.20;100563.23;429441;1288;145364;-64
2022/10/09 23:45:18;;;;;;;21.10;16.30;;;;;;;2.89;88.88;100558.52;423047;1287;142793;-62
2022/10/09 23:55:24;;;;;;;22.80;17.50;;;;;;;2.87;88.97;100550.42;436644;1281;141857;-61
